Time;durP1;ratioP1;P1;durP2;ratioP2;P2;SDS_P1;SDS_P2;PMS_P1;PMS_P2;Temp;Humidity;BMP_temperature;BMP_pressure;BME280_temperature;BME280_humidity;BME280_pressure;Samples;Min_cycle;Max_cycle;Signal;HPM_P1;HPM_P2
2022/01/13 00:00:22;;;;;;;35.23;19.90;;;5.90;99.90;;;;;;6077374;23;20548;-86
2022/01/13 00:03:26;;;;;;;38.00;22.30;;;5.80;99.90;;;;;;6077954;23;20401;-89
2022/01/13 00:24:11;;;;;;;;;;;;;;;;;;;;;
2022/01/13 00:27:26;;;;;;;40.17;21.40;;;5.40;99.90;;;;;;5952754;24;20400;-84
2022/01/13 00:30:53;;;;;;;36.13;22.37;;;5.30;99.90;;;;;;5957883;24;20510;-86
2022/01/13 00:41:54;;;;;;;45.80;22.90;;;5.70;99.90;;;;;;6140078;23;20435;-87
2022/01/13 00:44:21;;;;;;;41.93;22.97;;;5.50;99.90;;;;;;6133558;23;20482;-87
2022/01/13 00:47:53;;;;;;;43.90;24.30;;;5.70;99.90;;;;;;6119183;23;20418;-86
2022/01/13 01:01:17;;;;;;;43.67;24.20;;;6.00;99.90;;;;;;6140705;23;20473;-88
2022/01/13 01:04:30;;;;;;;44.30;23.00;;;6.00;99.90;;;;;;6111818;23;20422;-86
2022/01/13 01:14:59;;;;;;;;;;;;;;;;;;;;;
2022/01/13 01:18:29;;;;;;;45.80;25.60;;;6.00;99.90;;;;;;6144100;23;20495;-86
2022/01/13 01:27:46;;;;;;;38.23;22.47;;;5.60;99.90;;;;;;6141656;23;20831;-86
2022/01/13 01:30:39;;;;;;;37.50;22.87;;;5.40;99.90;;;;;;6115488;23;20433;-87
2022/01/13 01:33:51;;;;;;;44.33;24.30;;;5.70;99.90;;;;;;6114262;23;20418;-86
2022/01/13 01:43:39;;;;;;;37.30;22.20;;;5.80;99.90;;;;;;6113721;23;21021;-86
2022/01/13 01:46:50;;;;;;;38.00;21.30;;;5.90;99.90;;;;;;6003830;23;20459;-87
2022/01/13 01:50:16;;;;;;;34.93;20.93;;;5.70;99.90;;;;;;5964852;24;20441;-86
2022/01/13 01:53:37;;;;;;;35.27;20.37;;;5.80;99.90;;;;;;5951352;24;20474;-86
2022/01/13 02:03:14;;;;;;;33.43;20.33;;;5.30;99.90;;;;;;5890781;24;20545;-86
2022/01/13 02:06:11;;;;;;;36.07;19.90;;;5.70;99.90;;;;;;5885197;24;20413;-86
2022/01/13 02:09:16;;;;;;;34.63;20.37;;;5.80;99.90;;;;;;5752847;25;20508;-86
2022/01/13 02:16:06;;;;;;;37.53;21.47;;;5.80;99.90;;;;;;5804223;24;20489;-86
2022/01/13 02:31:53;;;;;;;33.50;21.20;;;5.80;99.90;;;;;;6154374;23;20527;-89
2022/01/13 02:35:14;;;;;;;42.63;22.93;;;5.70;99.90;;;;;;6111328;23;20453;-86
2022/01/13 02:38:32;;;;;;;35.20;20.90;;;5.70;99.90;;;;;;6128025;23;20400;-87
2022/01/13 02:41:26;;;;;;;32.10;20.63;;;5.70;99.90;;;;;;6125085;23;20397;-89
2022/01/13 02:44:37;;;;;;;;;;;;;;;;;;;;;
2022/01/13 02:51:42;;;;;;;38.53;22.40;;;5.70;99.90;;;;;;6114904;23;20480;-87
2022/01/13 03:03:55;;;;;;;34.37;21.93;;;5.10;99.90;;;;;;6120679;23;20438;-86
2022/01/13 03:06:46;;;;;;;36.17;22.87;;;5.40;99.90;;;;;;6133173;23;20393;-87
2022/01/13 03:16:41;;;;;;;35.47;21.70;;;5.70;99.90;;;;;;6153597;23;20443;-88
2022/01/13 03:19:41;;;;;;;38.60;21.80;;;5.70;99.90;;;;;;6126337;23;20444;-87
2022/01/13 03:22:27;;;;;;;35.10;20.50;;;5.70;99.90;;;;;;6154178;23;20432;-88
2022/01/13 03:25:24;;;;;;;33.50;19.50;;;5.70;99.90;;;;;;6130719;23;20404;-87
2022/01/13 03:28:14;;;;;;;36.27;20.10;;;5.60;99.90;;;;;;6129744;23;20463;-89
2022/01/13 03:31:16;;;;;;;35.10;22.50;;;5.80;99.90;;;;;;6130321;23;20402;-88
2022/01/13 03:34:07;;;;;;;39.47;23.57;;;5.70;99.90;;;;;;6114643;23;20399;-89
2022/01/13 03:37:04;;;;;;;39.40;24.30;;;5.80;99.90;;;;;;6124121;23;20416;-88
2022/01/13 03:40:04;;;;;;;36.90;22.70;;;5.70;99.90;;;;;;6109730;23;20459;-87
2022/01/13 03:46:59;;;;;;;38.43;22.80;;;5.10;99.90;;;;;;6093327;23;20416;-87
2022/01/13 03:49:45;;;;;;;33.17;21.33;;;5.00;99.90;;;;;;6027037;23;20431;-85
2022/01/13 03:53:20;;;;;;;35.10;21.17;;;4.90;99.90;;;;;;6009456;23;20372;-86
2022/01/13 04:00:08;;;;;;;38.47;21.20;;;5.40;99.90;;;;;;6028980;23;21003;-87
2022/01/13 04:03:04;;;;;;;38.50;21.50;;;5.50;99.90;;;;;;5991652;23;20415;-86
2022/01/13 04:25:29;;;;;;;36.77;19.93;;;4.80;99.90;;;;;;6066152;23;20402;-86
2022/01/13 04:33:01;;;;;;;34.40;21.60;;;4.90;99.90;;;;;;6037051;23;20436;-87
2022/01/13 04:46:01;;;;;;;32.00;20.87;;;5.40;99.90;;;;;;6153395;23;20429;-88
2022/01/13 04:49:05;;;;;;;32.67;19.73;;;5.40;99.90;;;;;;6152857;23;20422;-87
2022/01/13 04:52:04;;;;;;;39.80;22.80;;;5.40;99.90;;;;;;6112059;23;20466;-90
2022/01/13 04:55:49;;;;;;;33.60;20.03;;;5.20;99.90;;;;;;6126907;23;20801;-88
2022/01/13 05:02:10;;;;;;;35.43;20.90;;;5.10;99.90;;;;;;6129423;23;20463;-86
2022/01/13 05:05:05;;;;;;;37.70;19.70;;;5.30;99.90;;;;;;6130690;23;20404;-87
2022/01/13 05:11:45;;;;;;;42.63;22.40;;;5.10;99.90;;;;;;6151439;23;20442;-87
2022/01/13 05:14:53;;;;;;;37.10;23.13;;;5.20;99.90;;;;;;6056638;23;20428;-87
2022/01/13 05:22:17;;;;;;;41.40;24.63;;;4.90;99.90;;;;;;5861446;24;20442;-89
2022/01/13 05:25:12;;;;;;;41.27;23.53;;;5.00;99.90;;;;;;5867324;24;20464;-86
2022/01/13 05:28:26;;;;;;;46.03;24.10;;;5.10;99.90;;;;;;5895106;24;20468;-86
2022/01/13 05:34:55;;;;;;;42.13;24.17;;;5.00;99.90;;;;;;5901637;24;20418;-86
2022/01/13 05:38:45;;;;;;;42.60;23.87;;;4.80;99.90;;;;;;5817692;24;20420;-89
2022/01/13 05:41:58;;;;;;;42.60;23.80;;;4.60;99.90;;;;;;5823499;24;20453;-85
2022/01/13 05:45:51;;;;;;;41.53;23.70;;;4.70;99.90;;;;;;5836996;24;20906;-86
2022/01/13 05:51:09;;;;;;;50.73;28.07;;;5.20;99.90;;;;;;6115566;23;20448;-86
2022/01/13 05:55:02;;;;;;;39.37;22.00;;;5.10;99.90;;;;;;6104976;23;20368;-87
2022/01/13 05:58:21;;;;;;;47.37;23.57;;;5.10;99.90;;;;;;6125665;23;20422;-86
2022/01/13 06:04:56;;;;;;;40.80;22.87;;;4.70;99.90;;;;;;6031223;23;20351;-86
2022/01/13 06:12:45;;;;;;;36.97;21.87;;;4.70;99.90;;;;;;6042769;23;20457;-88
2022/01/13 06:15:54;;;;;;;38.70;21.33;;;4.70;99.90;;;;;;6076318;23;20554;-85
2022/01/13 06:18:45;;;;;;;46.87;24.53;;;4.90;99.90;;;;;;6055068;23;20436;-86
2022/01/13 06:22:03;;;;;;;44.67;24.33;;;4.90;99.90;;;;;;6057025;23;20450;-86
2022/01/13 06:25:17;;;;;;;44.93;24.50;;;4.60;99.90;;;;;;6040624;23;20796;-85
2022/01/13 06:28:32;;;;;;;47.00;25.23;;;4.80;99.90;;;;;;6056987;23;20523;-87
2022/01/13 06:31:25;;;;;;;51.57;25.87;;;4.90;99.90;;;;;;6056159;23;20397;-85
2022/01/13 06:38:09;;;;;;;43.13;23.00;;;4.90;99.90;;;;;;5950795;24;20440;-85
2022/01/13 06:41:10;;;;;;;38.10;19.00;;;4.80;99.90;;;;;;5848045;24;20437;-87
2022/01/13 06:48:03;;;;;;;41.90;22.07;;;4.70;99.90;;;;;;5834808;24;20889;-85
2022/01/13 06:50:53;;;;;;;43.40;23.37;;;4.70;99.90;;;;;;5846786;23;20449;-87
2022/01/13 06:53:51;;;;;;;;;;;;;;;;;;;;;
2022/01/13 06:56:38;;;;;;;42.73;22.23;;;4.50;99.90;;;;;;6025754;23;20506;-86
2022/01/13 06:59:47;;;;;;;46.00;25.77;;;4.70;99.90;;;;;;6005934;23;20404;-87
2022/01/13 07:02:55;;;;;;;;;;;;;;;;;;;;;
2022/01/13 07:05:56;;;;;;;49.37;24.70;;;4.40;99.90;;;;;;6008913;23;20403;-86
2022/01/13 07:09:17;;;;;;;48.97;24.67;;;4.60;99.90;;;;;;6006327;23;20433;-86
2022/01/13 07:12:03;;;;;;;43.13;23.30;;;4.40;99.90;;;;;;6001122;23;20462;-86
2022/01/13 07:14:53;;;;;;;41.77;22.70;;;4.40;99.90;;;;;;6080200;23;20422;-85
2022/01/13 07:18:04;;;;;;;44.47;24.20;;;4.70;99.90;;;;;;6032460;23;20410;-86
2022/01/13 07:21:04;;;;;;;49.70;23.90;;;4.70;99.90;;;;;;6061046;23;20416;-86
2022/01/13 07:24:05;;;;;;;47.20;23.97;;;4.60;99.90;;;;;;6048449;23;20424;-86
2022/01/13 07:26:58;;;;;;;47.70;23.80;;;4.50;99.90;;;;;;6059189;23;20469;-86
2022/01/13 07:29:55;;;;;;;42.27;23.87;;;4.50;99.90;;;;;;6063604;23;20508;-86
2022/01/13 07:35:32;;;;;;;41.00;23.17;;;4.60;99.90;;;;;;6110312;23;20463;-82
2022/01/13 07:38:00;;;;;;;37.03;21.30;;;4.60;99.90;;;;;;6104996;23;20410;-84
2022/01/13 07:40:27;;;;;;;39.93;19.63;;;4.50;99.90;;;;;;6104831;23;20399;-84
2022/01/13 07:42:54;;;;;;;39.00;22.57;;;4.50;99.90;;;;;;6102873;23;20440;-85
2022/01/13 07:45:20;;;;;;;38.57;23.70;;;4.70;99.90;;;;;;6096797;23;20424;-85
2022/01/13 07:47:47;;;;;;;41.93;19.40;;;4.60;99.90;;;;;;6104998;23;20427;-87
2022/01/13 07:50:15;;;;;;;35.83;19.47;;;4.60;99.90;;;;;;6107521;23;20415;-85
2022/01/13 07:52:46;;;;;;;43.43;20.23;;;4.40;99.90;;;;;;6103934;23;20407;-87
2022/01/13 07:55:18;;;;;;;40.77;21.83;;;4.40;99.90;;;;;;6078495;23;20449;-85
2022/01/13 07:57:45;;;;;;;36.00;19.83;;;4.30;99.90;;;;;;6104455;23;20402;-84
2022/01/13 08:00:14;;;;;;;35.03;18.97;;;4.30;99.90;;;;;;6104580;23;20416;-85
2022/01/13 08:02:41;;;;;;;32.70;17.83;;;4.30;99.90;;;;;;6078810;23;20411;-85
2022/01/13 08:05:09;;;;;;;39.00;19.30;;;4.30;99.90;;;;;;6104145;23;20777;-86
2022/01/13 08:07:36;;;;;;;32.93;17.00;;;4.30;99.90;;;;;;6105016;23;20454;-85
2022/01/13 08:10:18;;;;;;;29.53;16.27;;;4.30;99.90;;;;;;6079145;23;20937;-84
2022/01/13 08:12:45;;;;;;;35.33;20.47;;;4.30;99.90;;;;;;6101958;23;20472;-85
2022/01/13 08:15:15;;;;;;;30.50;20.17;;;4.10;99.90;;;;;;6102492;23;20441;-86
2022/01/13 08:20:33;;;;;;;33.47;19.67;;;4.30;99.90;;;;;;6101991;23;20420;-84
2022/01/13 08:23:00;;;;;;;30.47;18.77;;;4.20;99.90;;;;;;6077034;23;20498;-84
2022/01/13 08:25:27;;;;;;;38.97;20.80;;;4.40;99.90;;;;;;6104093;23;20740;-86
2022/01/13 08:27:54;;;;;;;34.93;17.73;;;4.30;99.90;;;;;;6077909;23;20419;-84
2022/01/13 08:30:21;;;;;;;37.83;19.47;;;4.20;99.90;;;;;;6077234;23;20755;-85
2022/01/13 08:32:49;;;;;;;38.40;20.40;;;4.10;99.90;;;;;;6102965;23;20456;-85
2022/01/13 08:35:15;;;;;;;37.23;17.30;;;4.00;99.90;;;;;;6078345;23;20452;-84
2022/01/13 08:37:43;;;;;;;33.43;19.33;;;4.00;99.90;;;;;;6103201;23;20413;-84
2022/01/13 08:40:12;;;;;;;39.03;21.90;;;4.00;99.90;;;;;;6078081;23;20901;-85
2022/01/13 08:42:39;;;;;;;35.93;19.50;;;3.90;99.90;;;;;;6077898;23;20410;-85
2022/01/13 08:45:09;;;;;;;29.70;19.20;;;4.00;99.90;;;;;;6075924;23;20504;-83
2022/01/13 08:47:35;;;;;;;39.77;19.07;;;4.00;99.90;;;;;;6076317;23;20485;-86
2022/01/13 08:50:06;;;;;;;33.67;18.60;;;3.90;99.90;;;;;;6074683;23;20428;-84
2022/01/13 08:52:37;;;;;;;34.10;17.77;;;4.00;99.90;;;;;;6074946;23;20420;-84
2022/01/13 08:55:06;;;;;;;36.73;20.70;;;4.00;99.90;;;;;;6075256;23;20449;-84
2022/01/13 08:57:33;;;;;;;34.13;19.90;;;3.90;99.90;;;;;;6101631;23;20440;-84
2022/01/13 09:00:01;;;;;;;32.17;18.37;;;3.80;99.90;;;;;;6074951;23;20432;-84
2022/01/13 09:02:32;;;;;;;35.23;20.70;;;4.00;99.90;;;;;;6076095;23;20416;-85
2022/01/13 09:05:04;;;;;;;38.67;20.43;;;4.10;99.90;;;;;;6102108;23;20435;-84
2022/01/13 09:07:31;;;;;;;36.53;20.33;;;4.10;99.90;;;;;;6102604;23;20430;-86
2022/01/13 09:10:05;;;;;;;34.47;20.33;;;3.90;99.90;;;;;;6101716;23;20416;-85
2022/01/13 09:12:32;;;;;;;36.73;20.80;;;3.90;99.90;;;;;;6101352;23;20413;-86
2022/01/13 09:15:03;;;;;;;37.03;19.90;;;4.00;99.90;;;;;;6103337;23;20433;-85
2022/01/13 09:17:31;;;;;;;35.07;20.30;;;4.20;99.90;;;;;;6078690;23;20459;-84
2022/01/13 09:19:58;;;;;;;36.63;20.87;;;4.40;99.90;;;;;;6101611;23;20469;-85
2022/01/13 09:22:25;;;;;;;36.97;22.17;;;4.30;99.90;;;;;;6082693;23;20393;-87
2022/01/13 09:24:52;;;;;;;38.50;21.00;;;4.50;99.90;;;;;;6120173;23;20429;-87
2022/01/13 09:27:19;;;;;;;39.47;22.23;;;4.40;99.90;;;;;;6110005;23;20405;-84
2022/01/13 09:29:45;;;;;;;39.63;21.80;;;4.40;99.90;;;;;;6105602;23;20410;-86
2022/01/13 09:32:14;;;;;;;36.63;18.27;;;4.50;99.90;;;;;;6105912;23;20715;-84
2022/01/13 09:34:42;;;;;;;39.87;22.43;;;4.20;99.90;;;;;;6102807;23;20482;-85
2022/01/13 09:37:08;;;;;;;39.80;20.77;;;4.50;99.90;;;;;;6077170;23;20950;-84
2022/01/13 09:39:36;;;;;;;35.17;19.87;;;4.50;99.90;;;;;;6101934;23;21211;-84
2022/01/13 09:42:07;;;;;;;35.97;20.77;;;4.40;99.90;;;;;;6101400;23;20428;-85
2022/01/13 09:44:51;;;;;;;32.17;17.20;;;4.50;99.90;;;;;;6066022;23;20417;-85
2022/01/13 09:47:18;;;;;;;32.90;18.93;;;4.60;99.90;;;;;;6100017;23;20712;-86
2022/01/13 09:49:45;;;;;;;34.13;19.20;;;4.70;99.90;;;;;;6075574;23;20430;-85
2022/01/13 09:52:12;;;;;;;31.77;19.90;;;4.80;99.90;;;;;;6100388;23;20492;-85
2022/01/13 09:54:39;;;;;;;33.83;19.50;;;4.60;99.90;;;;;;6075516;23;20526;-85
2022/01/13 09:57:07;;;;;;;29.67;16.30;;;4.80;99.90;;;;;;6099481;23;20431;-86
2022/01/13 09:59:34;;;;;;;35.60;18.97;;;5.50;99.90;;;;;;6100237;23;20409;-86
2022/01/13 10:02:01;;;;;;;42.80;22.43;;;5.90;99.90;;;;;;6075909;23;20424;-84
2022/01/13 10:04:49;;;;;;;30.77;18.00;;;5.50;99.90;;;;;;6101834;23;20431;-86
2022/01/13 10:07:31;;;;;;;31.93;18.70;;;5.60;99.90;;;;;;6101889;23;20428;-86
2022/01/13 10:10:15;;;;;;;39.90;22.17;;;5.50;99.90;;;;;;6077803;23;20428;-86
2022/01/13 10:12:44;;;;;;;37.03;20.57;;;5.40;99.90;;;;;;6076707;23;20424;-85
2022/01/13 10:18:00;;;;;;;43.13;23.10;;;5.50;99.90;;;;;;6114990;23;20419;-85
2022/01/13 10:20:27;;;;;;;36.20;21.43;;;5.30;99.90;;;;;;6088903;23;20417;-84
2022/01/13 10:23:04;;;;;;;34.67;20.00;;;5.40;99.90;;;;;;6089483;23;20398;-85
2022/01/13 10:25:37;;;;;;;35.60;19.43;;;5.70;99.90;;;;;;6090928;23;20926;-83
2022/01/13 10:28:18;;;;;;;36.73;20.20;;;5.60;99.90;;;;;;6089974;23;20428;-85
2022/01/13 10:30:48;;;;;;;36.33;18.30;;;5.60;99.90;;;;;;6109090;23;20499;-84
2022/01/13 10:33:18;;;;;;;36.87;20.47;;;5.80;99.90;;;;;;6103389;23;20415;-85
2022/01/13 10:35:47;;;;;;;35.40;18.80;;;5.40;99.90;;;;;;6102269;23;20453;-84
2022/01/13 10:38:16;;;;;;;31.43;18.90;;;5.30;99.90;;;;;;6093126;23;20413;-87
2022/01/13 10:40:48;;;;;;;35.53;20.30;;;5.70;99.90;;;;;;6098289;23;20425;-86
2022/01/13 10:43:20;;;;;;;37.30;18.80;;;5.70;99.90;;;;;;6098310;23;20488;-86
2022/01/13 10:45:50;;;;;;;35.10;19.13;;;5.80;99.90;;;;;;6115805;23;20462;-86
2022/01/13 10:48:25;;;;;;;36.23;19.57;;;5.80;99.90;;;;;;6107541;23;20416;-83
2022/01/13 10:51:04;;;;;;;33.50;18.90;;;5.90;99.90;;;;;;6083586;23;20405;-84
2022/01/13 10:53:35;;;;;;;34.07;19.97;;;5.90;99.90;;;;;;6106836;23;20725;-85
2022/01/13 10:56:06;;;;;;;36.67;19.23;;;5.80;99.90;;;;;;6106320;23;20546;-85
2022/01/13 10:59:02;;;;;;;32.30;18.30;;;5.70;99.90;;;;;;6105610;23;20410;-84
2022/01/13 11:01:35;;;;;;;28.63;16.57;;;5.80;99.90;;;;;;6077387;23;20419;-84
2022/01/13 11:04:15;;;;;;;32.13;18.60;;;5.90;99.90;;;;;;6105490;23;20428;-83
2022/01/13 11:06:41;;;;;;;41.03;23.30;;;5.70;99.90;;;;;;6079898;23;20389;-83
2022/01/13 11:09:16;;;;;;;33.53;18.70;;;5.70;99.90;;;;;;6110987;23;20409;-83
2022/01/13 11:11:56;;;;;;;32.80;16.97;;;5.60;99.90;;;;;;6090929;23;20413;-87
2022/01/13 11:14:27;;;;;;;34.00;17.90;;;5.70;99.90;;;;;;6092912;23;20471;-86
2022/01/13 11:16:55;;;;;;;31.13;17.70;;;5.80;99.90;;;;;;6093576;23;20478;-84
2022/01/13 11:19:22;;;;;;;32.27;17.30;;;5.90;99.90;;;;;;6116798;23;20457;-84
2022/01/13 11:21:50;;;;;;;31.97;17.57;;;5.90;99.90;;;;;;6090239;23;20429;-86
2022/01/13 11:24:18;;;;;;;35.77;18.77;;;6.00;99.90;;;;;;6106050;23;20421;-85
2022/01/13 11:26:47;;;;;;;28.23;16.10;;;6.10;99.90;;;;;;6107278;23;20421;-86
2022/01/13 11:29:16;;;;;;;30.40;17.20;;;6.20;99.90;;;;;;6073415;23;20475;-84
2022/01/13 11:31:43;;;;;;;30.83;17.10;;;6.20;99.90;;;;;;6095472;23;20417;-84
2022/01/13 11:34:11;;;;;;;34.73;19.20;;;6.20;99.90;;;;;;6092817;23;20419;-85
2022/01/13 11:36:38;;;;;;;31.30;16.20;;;6.20;99.90;;;;;;6094327;23;20460;-84
2022/01/13 11:39:06;;;;;;;34.00;18.60;;;6.30;99.90;;;;;;6109355;23;20430;-83
2022/01/13 11:41:33;;;;;;;31.03;18.80;;;6.10;99.90;;;;;;6102752;23;20525;-82
2022/01/13 11:44:14;;;;;;;31.77;18.37;;;6.10;99.90;;;;;;6093235;23;20435;-83
2022/01/13 11:46:46;;;;;;;32.10;18.30;;;6.20;99.90;;;;;;6064102;23;20422;-83
2022/01/13 11:49:18;;;;;;;29.93;16.03;;;6.30;99.90;;;;;;6088764;23;20414;-83
2022/01/13 11:51:58;;;;;;;26.50;15.70;;;6.30;99.90;;;;;;6088038;23;20425;-84
2022/01/13 11:54:31;;;;;;;29.37;17.80;;;6.20;99.90;;;;;;6068917;23;21096;-84
2022/01/13 11:57:27;;;;;;;30.73;18.50;;;6.00;99.90;;;;;;6095831;23;20463;-83
2022/01/13 12:00:00;;;;;;;31.30;18.57;;;6.20;99.90;;;;;;6117004;23;20477;-83
2022/01/13 12:02:28;;;;;;;32.17;16.77;;;6.40;99.90;;;;;;6091971;23;20536;-85
2022/01/13 12:05:04;;;;;;;27.40;15.43;;;6.30;99.90;;;;;;6090174;23;20424;-83
2022/01/13 12:07:42;;;;;;;27.67;17.37;;;6.40;99.90;;;;;;6091101;23;20433;-84
2022/01/13 12:10:29;;;;;;;26.50;15.37;;;6.40;99.90;;;;;;6089375;23;20399;-84
2022/01/13 12:12:56;;;;;;;30.43;16.80;;;6.30;99.90;;;;;;6088919;23;20421;-84
2022/01/13 12:15:29;;;;;;;27.23;15.90;;;6.50;99.90;;;;;;6115762;23;20457;-85
2022/01/13 12:18:00;;;;;;;23.73;14.97;;;6.60;99.90;;;;;;6090631;23;20448;-82
2022/01/13 12:20:41;;;;;;;28.00;16.57;;;6.60;99.90;;;;;;6089456;23;20508;-84
2022/01/13 12:23:43;;;;;;;29.07;15.70;;;6.60;99.90;;;;;;6090501;23;20403;-85
2022/01/13 12:26:32;;;;;;;30.23;15.73;;;6.70;99.90;;;;;;6134042;23;20432;-84
2022/01/13 12:29:32;;;;;;;29.43;15.87;;;6.70;99.90;;;;;;6105656;23;20409;-85
2022/01/13 12:32:14;;;;;;;25.33;14.53;;;6.60;99.90;;;;;;6105306;23;20515;-85
2022/01/13 12:34:45;;;;;;;27.70;14.20;;;6.60;99.90;;;;;;6136066;23;20420;-87
2022/01/13 12:37:12;;;;;;;28.70;15.67;;;6.60;99.90;;;;;;6150915;23;20463;-86
2022/01/13 12:39:58;;;;;;;27.57;15.20;;;6.60;99.90;;;;;;6126769;23;20480;-88
2022/01/13 12:42:34;;;;;;;29.53;16.03;;;6.60;99.90;;;;;;6127183;23;20443;-87
2022/01/13 12:48:13;;;;;;;28.03;15.00;;;6.70;99.90;;;;;;6131831;23;20419;-87
2022/01/13 12:51:06;;;;;;;26.10;14.70;;;6.80;99.90;;;;;;6064725;23;20415;-86
2022/01/13 12:53:36;;;;;;;34.53;15.00;;;6.80;99.90;;;;;;6103040;23;20483;-86
2022/01/13 12:56:18;;;;;;;26.60;14.17;;;6.80;99.90;;;;;;6101663;23;20476;-86
2022/01/13 12:58:49;;;;;;;28.10;16.63;;;6.80;99.90;;;;;;6128355;23;20396;-86
2022/01/13 13:01:21;;;;;;;26.43;14.43;;;6.60;99.90;;;;;;6102218;23;20416;-87
2022/01/13 13:04:08;;;;;;;29.17;17.07;;;6.90;99.90;;;;;;6094552;23;20779;-86
2022/01/13 13:06:40;;;;;;;32.80;16.83;;;6.90;99.90;;;;;;6096061;23;20445;-85
2022/01/13 13:09:20;;;;;;;25.27;14.63;;;6.90;99.90;;;;;;6126072;23;20420;-88
2022/01/13 13:11:52;;;;;;;28.00;15.40;;;7.00;99.90;;;;;;6097799;23;20400;-87
2022/01/13 13:15:39;;;;;;;26.63;15.83;;;7.00;99.90;;;;;;6099732;23;20405;-86
2022/01/13 13:17:28;;;;;;;25.53;14.93;;;7.20;99.90;;;;;;6123693;23;20446;-86
2022/01/13 13:19:55;;;;;;;24.13;14.13;;;7.20;99.90;;;;;;6123077;23;20413;-86
2022/01/13 13:22:22;;;;;;;25.60;14.90;;;7.20;99.70;;;;;;6121190;23;20938;-88
2022/01/13 13:24:48;;;;;;;25.60;12.80;;;7.20;99.90;;;;;;6097521;23;20431;-87
2022/01/13 13:27:28;;;;;;;28.17;15.60;;;7.20;99.80;;;;;;6123091;23;20390;-88
2022/01/13 13:29:55;;;;;;;23.37;13.63;;;7.30;99.80;;;;;;6096151;23;20442;-88
2022/01/13 13:32:22;;;;;;;25.07;14.00;;;7.30;99.60;;;;;;6097110;23;20565;-85
2022/01/13 13:34:49;;;;;;;24.23;14.00;;;7.40;99.70;;;;;;6096358;23;20433;-87
2022/01/13 13:37:17;;;;;;;26.13;13.70;;;7.40;99.60;;;;;;6095085;23;20450;-86
2022/01/13 13:39:43;;;;;;;29.33;15.67;;;7.30;99.70;;;;;;6097321;23;20416;-85
2022/01/13 13:42:12;;;;;;;24.20;15.33;;;7.40;99.90;;;;;;6122341;23;20418;-86
2022/01/13 13:44:42;;;;;;;23.13;15.70;;;7.40;99.90;;;;;;6099609;23;20471;-87
2022/01/13 13:47:17;;;;;;;20.77;14.40;;;7.50;99.90;;;;;;6123507;23;20422;-86
2022/01/13 13:49:57;;;;;;;23.47;14.70;;;7.60;99.80;;;;;;6096512;23;20436;-88
2022/01/13 13:52:26;;;;;;;26.43;16.00;;;7.60;99.40;;;;;;6098676;23;20398;-86
2022/01/13 13:54:53;;;;;;;25.70;14.07;;;7.50;99.80;;;;;;6095628;23;20453;-86
2022/01/13 13:57:52;;;;;;;23.27;12.83;;;7.60;99.90;;;;;;6122578;23;20449;-86
2022/01/13 14:00:28;;;;;;;23.57;13.70;;;7.60;99.90;;;;;;6099351;23;20443;-86
2022/01/13 14:02:59;;;;;;;25.50;14.50;;;7.60;99.80;;;;;;6099650;23;20459;-87
2022/01/13 14:05:39;;;;;;;26.60;14.50;;;7.70;99.80;;;;;;6097431;23;20521;-87
2022/01/13 14:08:07;;;;;;;25.20;14.70;;;7.50;99.60;;;;;;6128457;23;20447;-87
2022/01/13 14:10:34;;;;;;;24.33;13.30;;;7.60;99.60;;;;;;6116903;23;20505;-86
2022/01/13 14:13:06;;;;;;;26.33;14.90;;;7.60;99.70;;;;;;6112671;23;20643;-85
2022/01/13 14:15:37;;;;;;;22.50;13.90;;;7.70;99.80;;;;;;6133112;23;20788;-88
2022/01/13 14:18:14;;;;;;;23.23;14.80;;;7.50;99.80;;;;;;6107976;23;20424;-86
2022/01/13 14:20:59;;;;;;;23.00;13.63;;;7.60;99.90;;;;;;6129921;23;20426;-87
2022/01/13 14:23:34;;;;;;;20.50;12.73;;;7.50;99.90;;;;;;6100381;23;20403;-85
2022/01/13 14:26:14;;;;;;;26.43;13.90;;;7.70;99.80;;;;;;6124486;23;20451;-87
2022/01/13 14:38:43;;;;;;;;;;;;;;;;;;;;;
2022/01/13 14:41:46;;;;;;;23.37;13.43;;;7.80;99.00;;;;;;6134902;23;20411;-84
2022/01/13 14:48:51;;;;;;;16.17;11.20;;;7.90;98.30;;;;;;6016866;23;20411;-84
2022/01/13 14:52:03;;;;;;;22.63;13.00;;;7.80;98.10;;;;;;5982678;23;20476;-83
2022/01/13 14:58:34;;;;;;;15.23;10.53;;;7.80;98.10;;;;;;6012682;23;20451;-84
2022/01/13 15:12:39;;;;;;;25.30;13.30;;;7.20;99.00;;;;;;6108687;23;20448;-84
2022/01/13 15:15:36;;;;;;;23.50;12.53;;;7.50;99.50;;;;;;5985050;23;20515;-82
2022/01/13 15:19:46;;;;;;;;;;;;;;;;;;;;;
2022/01/13 15:22:17;;;;;;;21.47;12.57;;;7.90;97.80;;;;;;6087787;23;20463;-84
2022/01/13 15:32:47;;;;;;;18.00;12.33;;;8.00;97.10;;;;;;6090981;23;20451;-85
2022/01/13 15:43:45;;;;;;;22.40;12.07;;;8.00;97.20;;;;;;6022676;23;20431;-84
2022/01/13 15:47:46;;;;;;;;;;;;;;;;;;;;;
2022/01/13 15:51:03;;;;;;;17.23;10.87;;;7.90;97.50;;;;;;5918437;24;20415;-84
2022/01/13 15:54:35;;;;;;;20.03;11.13;;;7.70;97.40;;;;;;5941384;24;20481;-85
2022/01/13 16:01:48;;;;;;;20.10;11.40;;;7.70;97.90;;;;;;5802228;24;20442;-85
2022/01/13 16:05:22;;;;;;;19.83;11.53;;;7.70;98.00;;;;;;5820688;24;20898;-84
2022/01/13 16:08:25;;;;;;;18.90;11.07;;;8.00;97.30;;;;;;5891317;24;20480;-81
2022/01/13 16:11:53;;;;;;;;;;;;;;;;;;;;;
2022/01/13 16:16:08;;;;;;;17.90;10.23;;;7.90;97.10;;;;;;5832967;24;20421;-84
2022/01/13 16:19:39;;;;;;;18.30;10.10;;;7.70;97.30;;;;;;5861089;24;20453;-84
2022/01/13 16:26:25;;;;;;;19.17;11.33;;;7.80;97.90;;;;;;5965772;23;20442;-85
2022/01/13 16:29:59;;;;;;;18.80;11.00;;;7.90;97.40;;;;;;6016009;23;20411;-83
2022/01/13 16:34:05;;;;;;;;;;;;;;;;;;;;;
2022/01/13 16:44:55;;;;;;;19.87;11.00;;;7.80;97.50;;;;;;6002837;23;20483;-84
2022/01/13 16:59:33;;;;;;;;;;;;;;;;;;;;;
2022/01/13 17:02:56;;;;;;;;;;;;;;;;;;;;;
2022/01/13 17:06:17;;;;;;;;;;;;;;;;;;;;;
2022/01/13 17:18:03;;;;;;;;;;;;;;;;;;;;;
2022/01/13 17:21:39;;;;;;;22.20;12.40;;;7.50;99.90;;;;;;6061185;23;20499;-84
2022/01/13 17:25:21;;;;;;;;;;;;;;;;;;;;;
2022/01/13 17:28:19;;;;;;;16.50;11.00;;;7.50;99.90;;;;;;5958959;24;20473;-83
2022/01/13 17:31:01;;;;;;;16.57;11.17;;;7.40;99.90;;;;;;5937778;24;20433;-84
2022/01/13 17:34:43;;;;;;;23.10;12.87;;;7.30;99.90;;;;;;5919877;24;20406;-85
2022/01/13 17:38:35;;;;;;;23.60;11.80;;;7.20;99.90;;;;;;5906993;24;20522;-84
2022/01/13 17:42:05;;;;;;;;;;;;;;;;;;;;;
2022/01/13 17:51:21;;;;;;;18.77;11.70;;;7.50;99.90;;;;;;6128791;23;20463;-85
2022/01/13 17:54:29;;;;;;;21.07;13.50;;;7.50;99.90;;;;;;6115087;23;20404;-83
2022/01/13 17:57:46;;;;;;;19.60;11.90;;;7.40;99.90;;;;;;6090425;23;20442;-83
2022/01/13 18:00:37;;;;;;;20.23;12.90;;;7.10;99.90;;;;;;6115319;23;20483;-83
2022/01/13 18:04:28;;;;;;;19.37;12.37;;;7.20;99.90;;;;;;6120092;23;20891;-82
2022/01/13 18:10:57;;;;;;;20.87;12.20;;;6.90;99.90;;;;;;6137227;23;20423;-84
2022/01/13 18:14:24;;;;;;;19.37;12.50;;;7.10;99.90;;;;;;6135151;23;20380;-83
2022/01/13 18:17:46;;;;;;;19.90;11.23;;;7.10;99.90;;;;;;6086333;23;20767;-84
2022/01/13 18:20:40;;;;;;;17.47;11.50;;;6.80;99.90;;;;;;6106894;23;20405;-82
2022/01/13 18:23:33;;;;;;;20.20;13.03;;;6.80;99.90;;;;;;6104748;23;20410;-83
2022/01/13 18:26:45;;;;;;;17.07;11.40;;;6.90;99.90;;;;;;6001304;23;20811;-85
2022/01/13 18:37:27;;;;;;;20.80;11.57;;;6.60;99.90;;;;;;6043122;23;20434;-83
2022/01/13 18:40:18;;;;;;;17.33;12.10;;;6.60;99.90;;;;;;6102537;23;20425;-83
2022/01/13 18:43:19;;;;;;;26.70;12.93;;;6.50;99.90;;;;;;6110469;23;20427;-84
2022/01/13 18:46:28;;;;;;;20.30;12.27;;;6.40;99.90;;;;;;6104324;23;20399;-84
2022/01/13 18:49:42;;;;;;;18.80;11.80;;;6.50;99.90;;;;;;6114205;23;20522;-83
2022/01/13 18:56:16;;;;;;;22.73;14.07;;;6.50;99.90;;;;;;6131904;23;20423;-86
2022/01/13 19:03:25;;;;;;;16.80;11.90;;;6.30;99.90;;;;;;6132115;23;20487;-86
2022/01/13 19:06:59;;;;;;;21.97;13.57;;;6.30;99.90;;;;;;6096454;23;20490;-84
2022/01/13 19:10:19;;;;;;;;;;;;;;;;;;;;;
2022/01/13 19:13:28;;;;;;;23.37;13.77;;;6.60;99.90;;;;;;6035721;23;20427;-85
2022/01/13 19:16:40;;;;;;;19.00;12.37;;;6.40;99.90;;;;;;6016720;23;20397;-86
2022/01/13 19:23:30;;;;;;;22.80;14.50;;;6.00;99.90;;;;;;5996546;24;20410;-86
2022/01/13 19:27:13;;;;;;;24.10;13.70;;;6.20;99.90;;;;;;5969177;24;21024;-84
2022/01/13 19:30:48;;;;;;;25.03;13.37;;;6.10;99.90;;;;;;5961598;24;20399;-83
2022/01/13 19:37:08;;;;;;;23.57;12.80;;;6.10;99.90;;;;;;5876746;24;20914;-82
2022/01/13 19:40:03;;;;;;;22.13;14.27;;;6.20;99.90;;;;;;5876717;24;20413;-84
2022/01/13 19:42:55;;;;;;;20.60;12.77;;;5.80;99.90;;;;;;5883168;24;20448;-84
2022/01/13 19:46:02;;;;;;;22.63;14.60;;;5.70;99.90;;;;;;5968616;24;20419;-85
2022/01/13 19:49:30;;;;;;;23.93;13.90;;;5.70;99.90;;;;;;5951851;23;20944;-86
2022/01/13 19:55:59;;;;;;;18.40;13.27;;;6.10;99.90;;;;;;6048411;23;20420;-86
2022/01/13 19:58:47;;;;;;;22.63;13.57;;;6.20;99.90;;;;;;6032342;23;20535;-86